sensor_id;sensor_type;location;lat;lon;timestamp;P1;P2;P0
46044;PMS7003;31781;54.094;13.428;2024-01-30T00:05:17;4.00;4.00;3.33
46044;PMS7003;31781;54.094;13.428;2024-01-30T00:11:21;3.33;3.33;2.67
46044;PMS7003;31781;54.094;13.428;2024-01-30T00:17:24;5.00;5.00;4.00
46044;PMS7003;31781;54.094;13.428;2024-01-30T00:23:26;5.00;5.00;4.00
46044;PMS7003;31781;54.094;13.428;2024-01-30T00:29:29;5.00;5.00;4.00
46044;PMS7003;31781;54.094;13.428;2024-01-30T00:35:32;4.33;4.33;4.00
46044;PMS7003;31781;54.094;13.428;2024-01-30T00:41:34;6.67;6.67;6.00
46044;PMS7003;31781;54.094;13.428;2024-01-30T00:47:38;5.33;5.33;5.00
46044;PMS7003;31781;54.094;13.428;2024-01-30T00:53:39;5.67;5.67;4.33
46044;PMS7003;31781;54.094;13.428;2024-01-30T00:59:42;3.67;3.67;2.67
46044;PMS7003;31781;54.094;13.428;2024-01-30T01:05:49;4.33;4.33;4.00
46044;PMS7003;31781;54.094;13.428;2024-01-30T01:11:52;6.00;5.00;5.00
46044;PMS7003;31781;54.094;13.428;2024-01-30T01:17:54;4.33;4.33;4.00
46044;PMS7003;31781;54.094;13.428;2024-01-30T01:23:59;8.00;5.00;4.33
46044;PMS7003;31781;54.094;13.428;2024-01-30T01:30:01;5.00;4.00;4.00
46044;PMS7003;31781;54.094;13.428;2024-01-30T01:36:04;9.00;6.67;5.67
46044;PMS7003;31781;54.094;13.428;2024-01-30T01:42:07;5.00;5.00;4.33
46044;PMS7003;31781;54.094;13.428;2024-01-30T01:48:09;7.33;7.33;5.33
46044;PMS7003;31781;54.094;13.428;2024-01-30T01:54:11;5.00;5.00;4.00
46044;PMS7003;31781;54.094;13.428;2024-01-30T02:00:16;2.33;2.33;1.33
46044;PMS7003;31781;54.094;13.428;2024-01-30T02:06:22;4.67;4.67;4.00
46044;PMS7003;31781;54.094;13.428;2024-01-30T02:12:24;4.33;4.33;4.00
46044;PMS7003;31781;54.094;13.428;2024-01-30T02:18:27;5.33;5.33;4.67
46044;PMS7003;31781;54.094;13.428;2024-01-30T02:24:31;4.00;4.00;4.00
46044;PMS7003;31781;54.094;13.428;2024-01-30T02:30:33;5.00;5.00;5.00
46044;PMS7003;31781;54.094;13.428;2024-01-30T02:36:34;4.33;4.33;4.00
46044;PMS7003;31781;54.094;13.428;2024-01-30T02:42:38;5.00;5.00;4.00
46044;PMS7003;31781;54.094;13.428;2024-01-30T02:48:40;4.00;4.00;4.00
46044;PMS7003;31781;54.094;13.428;2024-01-30T02:54:43;5.00;5.00;4.00
46044;PMS7003;31781;54.094;13.428;2024-01-30T03:00:49;5.00;5.00;4.00
46044;PMS7003;31781;54.094;13.428;2024-01-30T03:06:51;1.00;1.00;1.00
46044;PMS7003;31781;54.094;13.428;2024-01-30T03:12:53;4.00;4.00;4.00
46044;PMS7003;31781;54.094;13.428;2024-01-30T03:18:56;5.00;5.00;4.00
46044;PMS7003;31781;54.094;13.428;2024-01-30T03:24:58;4.67;4.67;4.33
46044;PMS7003;31781;54.094;13.428;2024-01-30T03:31:00;5.33;5.33;5.00
46044;PMS7003;31781;54.094;13.428;2024-01-30T03:37:04;2.67;2.67;2.00
46044;PMS7003;31781;54.094;13.428;2024-01-30T03:43:06;4.67;4.67;4.33
46044;PMS7003;31781;54.094;13.428;2024-01-30T03:49:09;8.67;6.33;5.00
46044;PMS7003;31781;54.094;13.428;2024-01-30T03:55:13;5.33;5.33;4.67
46044;PMS7003;31781;54.094;13.428;2024-01-30T04:01:14;5.00;5.00;5.00
46044;PMS7003;31781;54.094;13.428;2024-01-30T04:07:22;6.33;6.33;4.67
46044;PMS7003;31781;54.094;13.428;2024-01-30T04:13:30;9.00;7.33;5.33
46044;PMS7003;31781;54.094;13.428;2024-01-30T04:19:37;6.33;6.33;5.00
46044;PMS7003;31781;54.094;13.428;2024-01-30T04:25:51;7.00;7.00;5.33
46044;PMS7003;31781;54.094;13.428;2024-01-30T04:32:04;9.33;6.67;5.33
46044;PMS7003;31781;54.094;13.428;2024-01-30T04:38:20;8.33;8.33;6.00
46044;PMS7003;31781;54.094;13.428;2024-01-30T04:44:23;6.33;6.33;5.00
46044;PMS7003;31781;54.094;13.428;2024-01-30T04:57:27;10.00;9.00;6.00
46044;PMS7003;31781;54.094;13.428;2024-01-30T05:03:32;8.00;8.00;7.33
46044;PMS7003;31781;54.094;13.428;2024-01-30T05:09:35;9.00;9.00;8.00
46044;PMS7003;31781;54.094;13.428;2024-01-30T05:15:38;8.67;7.33;5.67
46044;PMS7003;31781;54.094;13.428;2024-01-30T05:21:40;10.33;6.67;4.67
46044;PMS7003;31781;54.094;13.428;2024-01-30T05:27:43;12.00;10.33;8.00
46044;PMS7003;31781;54.094;13.428;2024-01-30T05:33:47;9.67;8.33;6.00
46044;PMS7003;31781;54.094;13.428;2024-01-30T05:39:49;9.00;9.00;8.00
46044;PMS7003;31781;54.094;13.428;2024-01-30T05:45:52;8.00;8.00;5.67
46044;PMS7003;31781;54.094;13.428;2024-01-30T05:51:55;5.67;4.67;4.67
46044;PMS7003;31781;54.094;13.428;2024-01-30T05:57:58;9.00;8.00;6.00
46044;PMS7003;31781;54.094;13.428;2024-01-30T06:04:01;5.67;5.67;5.00
46044;PMS7003;31781;54.094;13.428;2024-01-30T06:10:05;6.67;6.67;5.00
46044;PMS7003;31781;54.094;13.428;2024-01-30T06:16:09;9.67;8.00;5.67
46044;PMS7003;31781;54.094;13.428;2024-01-30T06:22:14;9.00;8.00;7.33
46044;PMS7003;31781;54.094;13.428;2024-01-30T06:28:18;11.00;11.00;8.33
46044;PMS7003;31781;54.094;13.428;2024-01-30T06:34:20;11.33;9.67;8.00
46044;PMS7003;31781;54.094;13.428;2024-01-30T06:40:22;13.33;8.00;7.33
46044;PMS7003;31781;54.094;13.428;2024-01-30T06:46:26;8.33;8.33;6.33
46044;PMS7003;31781;54.094;13.428;2024-01-30T06:52:28;14.33;10.33;9.00
46044;PMS7003;31781;54.094;13.428;2024-01-30T06:58:30;7.00;6.00;5.00
46044;PMS7003;31781;54.094;13.428;2024-01-30T07:04:34;8.00;8.00;5.00
46044;PMS7003;31781;54.094;13.428;2024-01-30T07:10:36;10.33;10.33;8.00
46044;PMS7003;31781;54.094;13.428;2024-01-30T07:16:39;10.00;8.67;6.33
46044;PMS7003;31781;54.094;13.428;2024-01-30T07:22:43;13.00;12.00;8.00
46044;PMS7003;31781;54.094;13.428;2024-01-30T07:28:44;11.00;9.00;7.67
46044;PMS7003;31781;54.094;13.428;2024-01-30T07:34:46;11.00;8.00;7.00
46044;PMS7003;31781;54.094;13.428;2024-01-30T07:41:08;11.00;11.00;8.00
46044;PMS7003;31781;54.094;13.428;2024-01-30T07:47:10;12.33;10.33;8.00
46044;PMS7003;31781;54.094;13.428;2024-01-30T07:53:12;11.33;11.33;8.67
46044;PMS7003;31781;54.094;13.428;2024-01-30T07:59:15;9.67;9.33;8.00
46044;PMS7003;31781;54.094;13.428;2024-01-30T08:05:17;11.00;11.00;7.67
46044;PMS7003;31781;54.094;13.428;2024-01-30T08:11:19;6.33;6.33;5.00
46044;PMS7003;31781;54.094;13.428;2024-01-30T08:17:23;8.33;8.33;6.67
46044;PMS7003;31781;54.094;13.428;2024-01-30T08:23:25;9.33;8.33;5.67
46044;PMS7003;31781;54.094;13.428;2024-01-30T08:29:27;12.67;12.00;8.67
46044;PMS7003;31781;54.094;13.428;2024-01-30T08:35:31;11.00;11.00;8.33
46044;PMS7003;31781;54.094;13.428;2024-01-30T08:41:34;10.00;10.00;6.00
46044;PMS7003;31781;54.094;13.428;2024-01-30T08:47:36;9.67;9.67;8.00
46044;PMS7003;31781;54.094;13.428;2024-01-30T08:53:39;8.33;8.33;6.00
46044;PMS7003;31781;54.094;13.428;2024-01-30T08:59:41;4.67;4.67;2.00
46044;PMS7003;31781;54.094;13.428;2024-01-30T09:05:43;16.33;15.00;11.00
46044;PMS7003;31781;54.094;13.428;2024-01-30T09:11:46;15.67;9.00;7.33
46044;PMS7003;31781;54.094;13.428;2024-01-30T09:17:48;12.33;12.33;9.33
46044;PMS7003;31781;54.094;13.428;2024-01-30T09:23:51;12.67;12.67;9.67
46044;PMS7003;31781;54.094;13.428;2024-01-30T09:29:57;12.33;12.33;9.33
46044;PMS7003;31781;54.094;13.428;2024-01-30T09:35:58;12.33;12.33;10.00
46044;PMS7003;31781;54.094;13.428;2024-01-30T09:42:02;5.00;4.00;0.00
46044;PMS7003;31781;54.094;13.428;2024-01-30T09:48:11;10.00;10.00;9.00
46044;PMS7003;31781;54.094;13.428;2024-01-30T09:54:13;9.67;9.67;8.67
46044;PMS7003;31781;54.094;13.428;2024-01-30T10:00:16;13.33;13.33;10.33
46044;PMS7003;31781;54.094;13.428;2024-01-30T10:06:20;14.00;11.00;10.00
46044;PMS7003;31781;54.094;13.428;2024-01-30T10:12:25;5.00;5.00;2.00
46044;PMS7003;31781;54.094;13.428;2024-01-30T10:18:28;14.67;14.67;10.33
46044;PMS7003;31781;54.094;13.428;2024-01-30T10:24:33;13.00;13.00;10.67
46044;PMS7003;31781;54.094;13.428;2024-01-30T10:30:35;22.67;15.00;11.00
46044;PMS7003;31781;54.094;13.428;2024-01-30T10:36:39;13.33;13.33;10.00
46044;PMS7003;31781;54.094;13.428;2024-01-30T10:42:43;12.33;11.67;10.00
46044;PMS7003;31781;54.094;13.428;2024-01-30T10:48:46;18.00;13.67;10.00
46044;PMS7003;31781;54.094;13.428;2024-01-30T10:54:56;12.67;11.33;8.67
46044;PMS7003;31781;54.094;13.428;2024-01-30T11:01:01;15.00;15.00;11.00
46044;PMS7003;31781;54.094;13.428;2024-01-30T11:07:13;13.33;12.33;9.67
46044;PMS7003;31781;54.094;13.428;2024-01-30T11:13:18;10.67;10.67;8.67
46044;PMS7003;31781;54.094;13.428;2024-01-30T11:19:25;15.00;10.67;8.00
46044;PMS7003;31781;54.094;13.428;2024-01-30T11:25:28;12.33;12.33;7.67
46044;PMS7003;31781;54.094;13.428;2024-01-30T11:31:33;14.33;14.33;11.00
46044;PMS7003;31781;54.094;13.428;2024-01-30T11:37:37;13.67;12.33;10.67
46044;PMS7003;31781;54.094;13.428;2024-01-30T11:43:39;13.33;11.67;8.67
46044;PMS7003;31781;54.094;13.428;2024-01-30T11:49:41;17.00;17.00;10.67
46044;PMS7003;31781;54.094;13.428;2024-01-30T11:55:50;14.50;14.50;11.00
46044;PMS7003;31781;54.094;13.428;2024-01-30T12:01:52;19.50;14.50;10.75
46044;PMS7003;31781;54.094;13.428;2024-01-30T12:07:54;17.25;14.25;12.00
46044;PMS7003;31781;54.094;13.428;2024-01-30T12:13:59;16.00;16.00;12.25
46044;PMS7003;31781;54.094;13.428;2024-01-30T12:20:04;14.75;14.75;12.00
46044;PMS7003;31781;54.094;13.428;2024-01-30T12:26:07;14.25;14.25;11.00
46044;PMS7003;31781;54.094;13.428;2024-01-30T12:32:15;16.00;16.00;10.25
46044;PMS7003;31781;54.094;13.428;2024-01-30T12:38:18;17.50;17.50;12.00
46044;PMS7003;31781;54.094;13.428;2024-01-30T12:44:20;14.00;14.00;12.00
46044;PMS7003;31781;54.094;13.428;2024-01-30T12:50:24;16.50;15.50;11.50
46044;PMS7003;31781;54.094;13.428;2024-01-30T12:56:25;12.75;12.75;9.25
46044;PMS7003;31781;54.094;13.428;2024-01-30T13:02:28;12.25;12.25;9.50
46044;PMS7003;31781;54.094;13.428;2024-01-30T13:08:31;14.25;14.25;11.75
46044;PMS7003;31781;54.094;13.428;2024-01-30T13:14:33;16.50;16.00;12.25
46044;PMS7003;31781;54.094;13.428;2024-01-30T13:20:35;15.25;15.25;12.00
46044;PMS7003;31781;54.094;13.428;2024-01-30T13:26:38;18.00;18.00;13.00
46044;PMS7003;31781;54.094;13.428;2024-01-30T13:32:40;13.50;13.50;10.75
46044;PMS7003;31781;54.094;13.428;2024-01-30T13:38:43;14.75;14.50;12.50
46044;PMS7003;31781;54.094;13.428;2024-01-30T13:44:46;20.75;16.75;12.00
46044;PMS7003;31781;54.094;13.428;2024-01-30T13:50:48;17.50;15.25;12.50
46044;PMS7003;31781;54.094;13.428;2024-01-30T13:56:51;11.00;8.50;6.00
46044;PMS7003;31781;54.094;13.428;2024-01-30T14:02:56;15.50;15.50;12.50
46044;PMS7003;31781;54.094;13.428;2024-01-30T14:08:58;14.00;14.00;11.75
46044;PMS7003;31781;54.094;13.428;2024-01-30T14:15:08;14.00;13.00;9.50
46044;PMS7003;31781;54.094;13.428;2024-01-30T14:21:27;13.75;13.75;11.00
46044;PMS7003;31781;54.094;13.428;2024-01-30T14:27:29;8.00;8.00;6.50
46044;PMS7003;31781;54.094;13.428;2024-01-30T14:33:30;13.50;13.50;10.75
46044;PMS7003;31781;54.094;13.428;2024-01-30T14:39:33;16.25;15.00;11.50
46044;PMS7003;31781;54.094;13.428;2024-01-30T14:45:35;19.50;18.00;13.50
46044;PMS7003;31781;54.094;13.428;2024-01-30T14:51:37;18.25;14.50;10.50
46044;PMS7003;31781;54.094;13.428;2024-01-30T14:57:41;13.50;12.50;9.50
46044;PMS7003;31781;54.094;13.428;2024-01-30T15:03:43;15.75;15.75;12.00
46044;PMS7003;31781;54.094;13.428;2024-01-30T15:09:45;18.00;16.00;11.75
46044;PMS7003;31781;54.094;13.428;2024-01-30T15:15:48;13.00;13.00;11.75
46044;PMS7003;31781;54.094;13.428;2024-01-30T15:21:50;18.00;15.25;12.50
46044;PMS7003;31781;54.094;13.428;2024-01-30T15:27:52;10.50;10.50;8.00
46044;PMS7003;31781;54.094;13.428;2024-01-30T15:33:56;12.25;12.25;10.00
46044;PMS7003;31781;54.094;13.428;2024-01-30T15:39:58;16.50;16.50;12.25
46044;PMS7003;31781;54.094;13.428;2024-01-30T15:46:00;14.25;13.50;10.75
46044;PMS7003;31781;54.094;13.428;2024-01-30T15:52:04;13.50;13.50;11.00
46044;PMS7003;31781;54.094;13.428;2024-01-30T15:58:07;16.25;15.50;12.25
46044;PMS7003;31781;54.094;13.428;2024-01-30T16:04:09;14.75;14.25;11.00
46044;PMS7003;31781;54.094;13.428;2024-01-30T16:10:13;12.25;12.25;10.00
46044;PMS7003;31781;54.094;13.428;2024-01-30T16:16:17;15.75;13.00;11.00
46044;PMS7003;31781;54.094;13.428;2024-01-30T16:22:19;9.50;9.50;7.00
46044;PMS7003;31781;54.094;13.428;2024-01-30T16:28:24;12.50;12.50;9.00
46044;PMS7003;31781;54.094;13.428;2024-01-30T16:34:28;11.00;10.67;5.00
46044;PMS7003;31781;54.094;13.428;2024-01-30T16:40:30;12.50;9.25;5.75
46044;PMS7003;31781;54.094;13.428;2024-01-30T16:46:34;16.00;16.00;10.50
46044;PMS7003;31781;54.094;13.428;2024-01-30T16:52:37;18.00;14.75;11.75
46044;PMS7003;31781;54.094;13.428;2024-01-30T16:58:39;11.50;11.25;9.75
46044;PMS7003;31781;54.094;13.428;2024-01-30T17:04:43;14.50;11.00;8.25
46044;PMS7003;31781;54.094;13.428;2024-01-30T17:10:44;16.50;13.50;10.50
46044;PMS7003;31781;54.094;13.428;2024-01-30T17:16:47;11.00;11.00;9.75
46044;PMS7003;31781;54.094;13.428;2024-01-30T17:22:58;16.25;16.00;12.75
46044;PMS7003;31781;54.094;13.428;2024-01-30T17:29:13;15.75;15.75;11.25
46044;PMS7003;31781;54.094;13.428;2024-01-30T17:35:15;12.00;12.00;8.75
46044;PMS7003;31781;54.094;13.428;2024-01-30T17:41:17;9.75;9.75;7.25
46044;PMS7003;31781;54.094;13.428;2024-01-30T17:47:22;17.25;12.75;11.50
46044;PMS7003;31781;54.094;13.428;2024-01-30T17:53:24;13.67;13.67;8.00
46044;PMS7003;31781;54.094;13.428;2024-01-30T17:59:25;14.67;14.67;12.00
46044;PMS7003;31781;54.094;13.428;2024-01-30T18:05:28;9.33;7.33;6.00
46044;PMS7003;31781;54.094;13.428;2024-01-30T18:11:31;16.33;15.00;12.00
46044;PMS7003;31781;54.094;13.428;2024-01-30T18:17:34;17.00;15.33;12.00
46044;PMS7003;31781;54.094;13.428;2024-01-30T18:23:37;15.67;15.67;12.33
46044;PMS7003;31781;54.094;13.428;2024-01-30T18:29:39;17.50;13.00;11.50
46044;PMS7003;31781;54.094;13.428;2024-01-30T18:35:41;16.00;12.00;10.00
46044;PMS7003;31781;54.094;13.428;2024-01-30T18:41:46;15.67;15.67;12.00
46044;PMS7003;31781;54.094;13.428;2024-01-30T18:47:48;17.00;17.00;12.67
46044;PMS7003;31781;54.094;13.428;2024-01-30T18:53:51;8.75;7.00;7.00
46044;PMS7003;31781;54.094;13.428;2024-01-30T18:59:56;14.00;12.50;9.25
46044;PMS7003;31781;54.094;13.428;2024-01-30T19:05:58;12.75;12.75;9.25
46044;PMS7003;31781;54.094;13.428;2024-01-30T19:12:00;17.00;16.00;11.33
46044;PMS7003;31781;54.094;13.428;2024-01-30T19:18:05;15.00;15.00;11.75
46044;PMS7003;31781;54.094;13.428;2024-01-30T19:24:07;13.50;13.50;11.00
46044;PMS7003;31781;54.094;13.428;2024-01-30T19:30:10;17.75;15.75;11.75
46044;PMS7003;31781;54.094;13.428;2024-01-30T19:43:22;18.25;15.50;10.75
46044;PMS7003;31781;54.094;13.428;2024-01-30T19:49:24;14.25;13.50;11.00
46044;PMS7003;31781;54.094;13.428;2024-01-30T19:55:28;18.00;17.50;13.00
46044;PMS7003;31781;54.094;13.428;2024-01-30T20:01:31;18.00;16.75;12.75
46044;PMS7003;31781;54.094;13.428;2024-01-30T20:07:33;14.00;14.00;10.00
46044;PMS7003;31781;54.094;13.428;2024-01-30T20:13:35;14.75;14.00;11.50
46044;PMS7003;31781;54.094;13.428;2024-01-30T20:19:38;14.75;14.75;10.50
46044;PMS7003;31781;54.094;13.428;2024-01-30T20:25:40;14.50;14.50;12.25
46044;PMS7003;31781;54.094;13.428;2024-01-30T20:31:42;16.75;16.75;12.00
46044;PMS7003;31781;54.094;13.428;2024-01-30T20:37:45;14.00;14.00;11.00
46044;PMS7003;31781;54.094;13.428;2024-01-30T20:43:48;15.50;15.25;11.75
46044;PMS7003;31781;54.094;13.428;2024-01-30T20:49:50;15.75;13.25;11.00
46044;PMS7003;31781;54.094;13.428;2024-01-30T20:55:53;19.25;18.75;13.00
46044;PMS7003;31781;54.094;13.428;2024-01-30T21:01:55;16.25;15.75;11.25
46044;PMS7003;31781;54.094;13.428;2024-01-30T21:07:57;14.75;14.75;12.50
46044;PMS7003;31781;54.094;13.428;2024-01-30T21:14:01;12.50;12.25;9.00
46044;PMS7003;31781;54.094;13.428;2024-01-30T21:20:03;16.75;16.75;12.75
46044;PMS7003;31781;54.094;13.428;2024-01-30T21:26:05;18.50;18.25;15.00
46044;PMS7003;31781;54.094;13.428;2024-01-30T21:32:09;13.00;13.00;11.75
46044;PMS7003;31781;54.094;13.428;2024-01-30T21:38:10;15.00;9.25;8.00
46044;PMS7003;31781;54.094;13.428;2024-01-30T21:44:12;15.50;15.50;13.25
46044;PMS7003;31781;54.094;13.428;2024-01-30T21:50:17;17.75;16.50;12.50
46044;PMS7003;31781;54.094;13.428;2024-01-30T21:56:19;19.75;19.75;14.50
46044;PMS7003;31781;54.094;13.428;2024-01-30T22:02:21;20.00;18.75;13.25
46044;PMS7003;31781;54.094;13.428;2024-01-30T22:08:24;15.50;13.25;11.75
46044;PMS7003;31781;54.094;13.428;2024-01-30T22:14:26;16.75;13.75;11.50
46044;PMS7003;31781;54.094;13.428;2024-01-30T22:20:28;18.75;16.75;12.25
46044;PMS7003;31781;54.094;13.428;2024-01-30T22:26:37;21.75;19.50;11.25
46044;PMS7003;31781;54.094;13.428;2024-01-30T22:32:39;17.75;16.75;14.00
46044;PMS7003;31781;54.094;13.428;2024-01-30T22:38:42;18.00;16.75;12.00
46044;PMS7003;31781;54.094;13.428;2024-01-30T22:44:45;19.00;13.50;9.00
46044;PMS7003;31781;54.094;13.428;2024-01-30T22:50:47;16.25;14.00;11.50
46044;PMS7003;31781;54.094;13.428;2024-01-30T22:56:48;25.75;21.50;14.25
46044;PMS7003;31781;54.094;13.428;2024-01-30T23:02:51;18.25;18.25;13.00
46044;PMS7003;31781;54.094;13.428;2024-01-30T23:08:53;19.00;17.50;13.00
46044;PMS7003;31781;54.094;13.428;2024-01-30T23:14:55;16.75;16.75;11.75
46044;PMS7003;31781;54.094;13.428;2024-01-30T23:20:58;20.75;17.50;12.75
46044;PMS7003;31781;54.094;13.428;2024-01-30T23:27:00;19.50;19.50;13.50
46044;PMS7003;31781;54.094;13.428;2024-01-30T23:33:02;21.25;20.25;14.00
46044;PMS7003;31781;54.094;13.428;2024-01-30T23:39:05;25.25;23.25;14.25
46044;PMS7003;31781;54.094;13.428;2024-01-30T23:45:07;21.50;20.00;14.00
46044;PMS7003;31781;54.094;13.428;2024-01-30T23:51:10;21.50;19.25;13.00
46044;PMS7003;31781;54.094;13.428;2024-01-30T23:57:14;17.50;17.50;14.00
